createdAt,value
2022-12-11T00:01:46.600Z,21.60
2022-12-11T00:04:16.662Z,23.43
2022-12-11T00:06:46.333Z,22.30
2022-12-11T00:09:18.335Z,23.63
2022-12-11T00:11:50.020Z,25.13
2022-12-11T00:14:19.581Z,25.20
2022-12-11T00:16:50.712Z,25.73
2022-12-11T00:19:20.002Z,24.77
2022-12-11T00:21:49.343Z,23.70
2022-12-11T00:24:20.606Z,24.33
2022-12-11T00:26:49.903Z,24.67
2022-12-11T00:29:20.081Z,24.53
2022-12-11T00:31:52.490Z,24.53
2022-12-11T00:34:21.662Z,24.30
2022-12-11T00:36:51.240Z,25.00
2022-12-11T00:39:22.426Z,25.50
2022-12-11T00:41:51.248Z,24.33
2022-12-11T00:44:21.030Z,25.40
2022-12-11T00:46:50.698Z,9.33
2022-12-11T00:49:19.976Z,24.17
2022-12-11T00:51:49.386Z,24.20
2022-12-11T00:54:18.535Z,22.80
2022-12-11T00:56:51.518Z,24.20
2022-12-11T00:59:22.578Z,24.63
2022-12-11T01:01:54.498Z,24.50
2022-12-11T01:04:24.567Z,23.13
2022-12-11T01:06:54.513Z,24.73
2022-12-11T01:09:41.209Z,24.43
2022-12-11T01:12:11.444Z,24.20
2022-12-11T01:14:40.521Z,22.97
2022-12-11T01:17:09.569Z,23.27
2022-12-11T01:19:39.460Z,25.10
2022-12-11T01:22:09.247Z,22.83
2022-12-11T01:24:38.706Z,23.20
2022-12-11T01:27:07.850Z,24.10
2022-12-11T01:29:41.035Z,22.50
2022-12-11T01:32:10.114Z,26.97
2022-12-11T01:34:39.932Z,24.57
2022-12-11T01:37:11.746Z,21.30
2022-12-11T01:39:41.009Z,22.20
2022-12-11T01:42:17.974Z,21.97
2022-12-11T01:45:28.043Z,24.00
2022-12-11T01:48:02.627Z,23.77
2022-12-11T01:50:34.471Z,22.00
2022-12-11T01:53:04.061Z,25.23
2022-12-11T01:55:34.433Z,21.57
2022-12-11T01:58:05.280Z,24.97
2022-12-11T02:00:36.289Z,22.93
2022-12-11T02:03:05.813Z,23.60
2022-12-11T02:05:36.931Z,23.43
2022-12-11T02:08:08.060Z,19.67
2022-12-11T02:10:51.256Z,22.30
2022-12-11T02:13:25.574Z,23.43
2022-12-11T02:16:03.105Z,21.53
2022-12-11T02:18:36.528Z,22.33
2022-12-11T02:21:13.002Z,23.37
2022-12-11T02:24:09.634Z,23.77
2022-12-11T02:27:00.145Z,25.57
2022-12-11T02:29:37.065Z,22.43
2022-12-11T02:32:13.061Z,25.97
2022-12-11T02:34:45.625Z,25.87
2022-12-11T02:37:20.144Z,25.63
2022-12-11T02:39:54.079Z,25.03
2022-12-11T02:42:24.221Z,27.67
2022-12-11T02:44:56.930Z,23.97
2022-12-11T02:47:28.884Z,23.53
2022-12-11T02:49:58.552Z,25.77
2022-12-11T02:52:33.079Z,24.50
2022-12-11T02:55:03.620Z,25.53
2022-12-11T02:57:43.347Z,24.20
2022-12-11T03:00:17.424Z,23.83
2022-12-11T03:02:48.136Z,25.33
2022-12-11T03:05:17.539Z,22.67
2022-12-11T03:07:47.127Z,25.77
2022-12-11T03:10:19.261Z,23.93
2022-12-11T03:12:53.584Z,23.80
2022-12-11T03:15:25.986Z,23.60
2022-12-11T03:18:03.215Z,25.07
2022-12-11T03:20:39.889Z,23.53
2022-12-11T03:23:19.673Z,22.03
2022-12-11T03:25:55.214Z,23.97
2022-12-11T03:28:31.274Z,24.17
2022-12-11T03:31:04.626Z,24.37
2022-12-11T03:33:38.590Z,21.77
2022-12-11T03:36:09.989Z,21.60
2022-12-11T03:38:43.037Z,23.23
2022-12-11T03:41:21.755Z,19.53
2022-12-11T03:43:53.712Z,22.03
2022-12-11T03:46:29.654Z,21.57
2022-12-11T03:48:59.007Z,20.23
2022-12-11T03:51:28.313Z,20.57
2022-12-11T03:53:58.121Z,21.93
2022-12-11T03:56:27.879Z,20.57
2022-12-11T03:58:57.233Z,19.87
2022-12-11T04:01:29.017Z,21.83
2022-12-11T04:03:58.478Z,20.80
2022-12-11T04:06:27.788Z,19.80
2022-12-11T04:08:57.665Z,21.83
2022-12-11T04:11:36.705Z,20.30
2022-12-11T04:14:26.132Z,20.90
2022-12-11T04:16:57.981Z,19.87
2022-12-11T04:19:45.135Z,20.87
2022-12-11T04:22:32.402Z,22.83
2022-12-11T04:25:02.153Z,19.77
2022-12-11T04:27:49.037Z,21.40
2022-12-11T04:30:21.335Z,19.73
2022-12-11T04:32:56.570Z,22.63
2022-12-11T04:35:26.178Z,20.87
2022-12-11T04:37:56.046Z,21.73
2022-12-11T04:40:25.227Z,20.77
2022-12-11T04:42:56.462Z,20.57
2022-12-11T04:45:25.784Z,20.07
2022-12-11T04:47:59.126Z,18.83
2022-12-11T04:50:28.108Z,20.43
2022-12-11T04:52:57.516Z,19.57
2022-12-11T04:55:26.663Z,17.30
2022-12-11T04:57:55.564Z,19.47
2022-12-11T05:00:27.615Z,18.73
2022-12-11T05:02:59.450Z,18.83
2022-12-11T05:05:29.883Z,17.67
2022-12-11T05:07:59.151Z,17.90
2022-12-11T05:10:28.928Z,20.57
2022-12-11T05:13:02.555Z,19.77
2022-12-11T05:15:31.991Z,20.67
2022-12-11T05:18:02.090Z,19.93
2022-12-11T05:20:32.040Z,20.10
2022-12-11T05:23:01.383Z,20.90
2022-12-11T05:25:32.927Z,19.77
2022-12-11T05:28:04.829Z,19.27
2022-12-11T05:30:37.361Z,22.40
2022-12-11T05:33:10.334Z,20.37
2022-12-11T05:35:40.079Z,19.90
2022-12-11T05:38:09.720Z,19.07
2022-12-11T05:40:39.223Z,20.60
2022-12-11T05:43:09.202Z,19.40
2022-12-11T05:45:39.795Z,20.93
2022-12-11T05:48:10.470Z,18.43
2022-12-11T05:50:40.295Z,17.57
2022-12-11T05:53:10.053Z,19.70
2022-12-11T05:55:39.486Z,19.87
2022-12-11T05:58:09.895Z,18.23
2022-12-11T06:00:39.862Z,19.60
2022-12-11T06:03:12.824Z,18.93
2022-12-11T06:05:44.502Z,18.80
2022-12-11T06:08:13.952Z,17.40
2022-12-11T06:10:47.541Z,19.60
2022-12-11T06:13:16.944Z,18.20
2022-12-11T06:15:46.551Z,20.33
2022-12-11T06:18:17.303Z,17.80
2022-12-11T06:20:47.277Z,17.50
2022-12-11T06:23:16.481Z,19.23
2022-12-11T06:25:45.589Z,17.53
2022-12-11T06:28:14.715Z,17.63
2022-12-11T06:30:44.921Z,18.17
2022-12-11T06:33:14.927Z,19.13
2022-12-11T06:35:47.090Z,18.87
2022-12-11T06:38:17.879Z,18.07
2022-12-11T06:40:47.080Z,19.50
2022-12-11T06:43:16.523Z,18.13
2022-12-11T06:45:46.245Z,20.97
2022-12-11T06:48:15.708Z,17.07
2022-12-11T06:50:49.574Z,18.43
2022-12-11T06:53:19.880Z,16.83
2022-12-11T06:55:49.479Z,18.30
2022-12-11T06:58:18.684Z,18.97
2022-12-11T07:00:48.002Z,16.80
2022-12-11T07:03:18.474Z,18.77
2022-12-11T07:05:49.333Z,20.53
2022-12-11T07:08:18.874Z,15.83
2022-12-11T07:10:48.270Z,17.63
2022-12-11T07:13:17.454Z,18.13
2022-12-11T07:15:46.987Z,16.60
2022-12-11T07:18:16.259Z,17.40
2022-12-11T07:20:46.616Z,18.03
2022-12-11T07:23:20.537Z,17.50
2022-12-11T07:25:49.942Z,16.80
2022-12-11T07:28:19.207Z,17.43
2022-12-11T07:30:49.207Z,15.90
2022-12-11T07:33:18.534Z,15.70
2022-12-11T07:35:47.550Z,15.63
2022-12-11T07:38:18.527Z,17.80
2022-12-11T07:40:47.739Z,17.03
2022-12-11T07:43:17.142Z,17.20
2022-12-11T07:45:46.653Z,15.73
2022-12-11T07:48:15.609Z,15.73
2022-12-11T07:50:44.745Z,13.83
2022-12-11T07:53:13.925Z,15.87
2022-12-11T07:55:45.816Z,16.20
2022-12-11T07:58:17.324Z,16.37
2022-12-11T08:00:48.431Z,16.43
2022-12-11T08:03:17.986Z,15.67
2022-12-11T08:05:54.144Z,17.00
2022-12-11T08:08:23.207Z,15.17
2022-12-11T08:10:54.951Z,12.73
2022-12-11T08:13:24.624Z,13.80
2022-12-11T08:15:54.917Z,14.37
2022-12-11T08:18:24.747Z,14.07
2022-12-11T08:20:55.037Z,12.77
2022-12-11T08:23:24.632Z,15.93
2022-12-11T08:25:55.635Z,15.73
2022-12-11T08:28:27.016Z,15.50
2022-12-11T08:30:57.439Z,16.20
2022-12-11T08:33:26.892Z,14.57
2022-12-11T08:35:56.326Z,13.40
2022-12-11T08:38:25.876Z,14.53
2022-12-11T08:40:56.506Z,13.40
2022-12-11T08:43:27.545Z,13.63
2022-12-11T08:45:57.109Z,14.83
2022-12-11T08:48:26.549Z,14.83
2022-12-11T08:50:55.888Z,13.87
2022-12-11T08:53:25.159Z,11.77
2022-12-11T08:55:55.001Z,13.13
2022-12-11T08:58:25.214Z,11.70
2022-12-11T09:00:54.795Z,12.13
2022-12-11T09:03:24.484Z,12.47
2022-12-11T09:05:59.820Z,13.00
2022-12-11T09:08:29.569Z,13.00
2022-12-11T09:10:59.715Z,13.17
2022-12-11T09:13:30.406Z,12.60
2022-12-11T09:15:59.771Z,11.80
2022-12-11T09:18:29.449Z,12.00
2022-12-11T09:21:03.004Z,12.50
2022-12-11T09:23:34.677Z,13.23
2022-12-11T09:26:06.667Z,10.03
2022-12-11T09:28:39.041Z,12.57
2022-12-11T09:31:12.660Z,14.87
2022-12-11T09:33:42.495Z,13.40
2022-12-11T09:36:12.492Z,10.10
2022-12-11T09:38:43.891Z,13.27
2022-12-11T09:41:28.130Z,12.90
2022-12-11T09:44:02.819Z,11.83
2022-12-11T09:46:34.589Z,12.27
2022-12-11T09:49:05.006Z,12.80
2022-12-11T09:51:42.645Z,10.87
2022-12-11T09:54:15.615Z,11.87
2022-12-11T09:56:52.825Z,9.63
2022-12-11T09:59:26.889Z,11.43
2022-12-11T10:02:03.102Z,10.00
2022-12-11T10:04:50.719Z,11.37
2022-12-11T10:07:29.581Z,9.40
2022-12-11T10:10:02.903Z,10.30
2022-12-11T10:12:44.472Z,11.60
2022-12-11T10:15:28.456Z,12.07
2022-12-11T10:18:04.954Z,9.30
2022-12-11T10:20:37.901Z,14.13
2022-12-11T10:23:10.210Z,13.00
2022-12-11T10:25:43.409Z,12.27
2022-12-11T10:28:15.284Z,12.80
2022-12-11T10:30:52.059Z,12.33
2022-12-11T10:33:24.667Z,13.17
2022-12-11T10:36:00.791Z,11.70
2022-12-11T10:38:33.257Z,14.87
2022-12-11T10:41:04.281Z,12.47
2022-12-11T10:43:40.258Z,11.73
2022-12-11T10:46:18.987Z,11.57
2022-12-11T10:48:49.155Z,12.93
2022-12-11T10:51:18.608Z,10.87
2022-12-11T10:53:52.867Z,13.40
2022-12-11T10:56:34.783Z,11.70
2022-12-11T10:59:04.734Z,13.67
2022-12-11T11:01:35.898Z,11.97
2022-12-11T11:04:08.430Z,11.07
2022-12-11T11:06:37.964Z,6.80
2022-12-11T11:09:07.195Z,9.53
2022-12-11T11:11:41.120Z,8.30
2022-12-11T11:14:16.781Z,10.17
2022-12-11T11:16:50.500Z,6.13
2022-12-11T11:19:23.073Z,8.30
2022-12-11T11:21:54.772Z,9.63
2022-12-11T11:24:30.699Z,6.37
2022-12-11T11:27:18.805Z,6.90
2022-12-11T11:29:52.919Z,8.77
2022-12-11T11:32:31.527Z,9.50
2022-12-11T11:35:22.810Z,9.87
2022-12-11T11:38:01.859Z,10.50
2022-12-11T11:40:32.470Z,10.13
2022-12-11T11:43:07.693Z,10.03
2022-12-11T11:45:40.896Z,11.33
2022-12-11T11:48:31.565Z,10.73
2022-12-11T11:51:00.896Z,10.40
2022-12-11T11:53:37.980Z,8.53
2022-12-11T11:56:12.388Z,10.77
2022-12-11T11:58:47.630Z,9.37
2022-12-11T12:01:18.167Z,9.50
2022-12-11T12:03:51.164Z,11.30
2022-12-11T12:06:30.398Z,9.37
2022-12-11T12:09:13.518Z,10.43
2022-12-11T12:11:46.103Z,9.20
2022-12-11T12:14:51.179Z,9.50
2022-12-11T12:17:16.747Z,9.77
2022-12-11T12:19:51.490Z,10.23
2022-12-11T12:22:38.168Z,8.93
2022-12-11T12:25:18.739Z,7.50
2022-12-11T12:27:56.675Z,8.80
2022-12-11T12:30:29.393Z,9.17
2022-12-11T12:33:12.587Z,10.00
2022-12-11T12:35:55.271Z,8.93
2022-12-11T12:38:36.197Z,9.80
2022-12-11T12:41:17.488Z,8.40
2022-12-11T12:44:03.440Z,7.23
2022-12-11T12:46:45.895Z,8.67
2022-12-11T12:49:18.417Z,8.83
2022-12-11T12:51:50.519Z,8.20
2022-12-11T12:54:23.870Z,7.70
2022-12-11T12:56:53.819Z,8.70
2022-12-11T12:59:25.111Z,7.13
2022-12-11T13:01:58.383Z,7.50
2022-12-11T13:04:56.087Z,8.63
2022-12-11T13:07:31.831Z,8.03
2022-12-11T13:10:07.745Z,6.53
2022-12-11T13:12:45.194Z,7.53
2022-12-11T13:15:29.923Z,7.00
2022-12-11T13:18:00.378Z,6.30
2022-12-11T13:20:31.221Z,8.20
2022-12-11T13:23:27.706Z,5.37
2022-12-11T13:26:00.666Z,6.33
2022-12-11T13:28:35.550Z,6.80
2022-12-11T13:31:28.027Z,7.07
2022-12-11T13:34:00.391Z,7.07
2022-12-11T13:36:32.889Z,7.07
2022-12-11T13:39:08.636Z,5.87
2022-12-11T13:41:40.752Z,7.63
2022-12-11T13:44:17.675Z,7.07
2022-12-11T13:46:47.293Z,8.70
2022-12-11T13:49:24.625Z,6.80
2022-12-11T13:51:55.257Z,7.00
2022-12-11T13:54:26.606Z,6.40
2022-12-11T13:57:02.512Z,7.17
2022-12-11T13:59:34.670Z,6.50
2022-12-11T14:02:11.800Z,7.63
2022-12-11T14:04:41.544Z,8.30
2022-12-11T14:07:12.701Z,7.17
2022-12-11T14:09:46.036Z,5.27
2022-12-11T14:12:23.125Z,6.93
2022-12-11T14:14:54.087Z,6.23
2022-12-11T14:17:27.896Z,7.27
2022-12-11T14:20:02.462Z,6.63
2022-12-11T14:22:32.347Z,5.13
2022-12-11T14:25:19.590Z,6.50
2022-12-11T14:27:50.135Z,6.93
2022-12-11T14:30:26.873Z,6.73
2022-12-11T14:32:59.727Z,7.60
2022-12-11T14:35:38.584Z,7.73
2022-12-11T14:38:16.457Z,5.40
2022-12-11T14:40:52.274Z,8.93
2022-12-11T14:43:24.553Z,6.97
2022-12-11T14:45:59.665Z,7.87
2022-12-11T14:48:35.052Z,7.67
2022-12-11T14:51:09.478Z,6.37
2022-12-11T14:53:43.761Z,6.57
2022-12-11T14:56:19.993Z,4.40
2022-12-11T14:58:54.658Z,5.93
2022-12-11T15:01:27.359Z,4.67
2022-12-11T15:04:08.722Z,4.07
2022-12-11T15:06:46.705Z,4.87
2022-12-11T15:09:20.905Z,3.67
2022-12-11T15:11:53.541Z,6.97
2022-12-11T15:14:26.674Z,5.13
2022-12-11T15:16:59.290Z,4.10
2022-12-11T15:19:33.213Z,4.53
2022-12-11T15:22:06.275Z,6.40
2022-12-11T15:24:40.834Z,6.20
2022-12-11T15:27:19.455Z,6.23
2022-12-11T15:29:50.279Z,5.47
2022-12-11T15:32:21.045Z,4.27
2022-12-11T15:34:53.033Z,6.63
2022-12-11T15:37:26.219Z,6.80
2022-12-11T15:39:59.325Z,6.03
2022-12-11T15:42:32.592Z,5.97
2022-12-11T15:45:03.298Z,5.27
2022-12-11T15:47:33.862Z,3.93
2022-12-11T15:50:04.719Z,5.83
2022-12-11T15:52:35.268Z,5.13
2022-12-11T15:55:05.293Z,6.80
2022-12-11T15:57:37.413Z,6.80
2022-12-11T16:00:08.858Z,6.37
2022-12-11T16:02:38.544Z,5.73
2022-12-11T16:05:10.472Z,6.93
2022-12-11T16:07:41.149Z,6.87
2022-12-11T16:10:14.957Z,5.70
2022-12-11T16:12:47.744Z,8.33
2022-12-11T16:15:23.529Z,5.97
2022-12-11T16:18:01.884Z,7.20
2022-12-11T16:20:32.951Z,7.30
2022-12-11T16:23:02.438Z,3.67
2022-12-11T16:25:32.119Z,6.50
2022-12-11T16:28:04.246Z,6.20
2022-12-11T16:30:34.427Z,5.37
2022-12-11T16:33:10.294Z,7.70
2022-12-11T16:35:42.030Z,6.17
2022-12-11T16:41:03.482Z,4.57
2022-12-11T16:43:34.912Z,5.83
2022-12-11T16:46:04.887Z,6.27
2022-12-11T16:48:34.438Z,5.60
2022-12-11T16:51:07.107Z,6.17
2022-12-11T16:53:39.322Z,5.57
2022-12-11T16:56:09.396Z,5.83
2022-12-11T16:58:40.992Z,6.00
2022-12-11T17:01:14.251Z,7.03
2022-12-11T17:03:44.579Z,5.87
2022-12-11T17:06:15.866Z,6.27
2022-12-11T17:08:46.791Z,6.20
2022-12-11T17:11:18.414Z,6.50
2022-12-11T17:13:50.511Z,4.43
2022-12-11T17:16:20.411Z,6.07
2022-12-11T17:18:49.808Z,5.13
2022-12-11T17:21:19.849Z,7.07
2022-12-11T17:23:49.466Z,6.00
2022-12-11T17:26:19.262Z,4.47
2022-12-11T17:28:50.265Z,3.27
2022-12-11T17:31:21.868Z,6.23
2022-12-11T17:33:51.914Z,5.77
2022-12-11T17:36:23.246Z,6.77
2022-12-11T17:38:53.041Z,5.93
2022-12-11T17:41:26.516Z,7.37
2022-12-11T17:43:58.844Z,7.43
2022-12-11T17:46:29.113Z,6.40
2022-12-11T17:49:00.712Z,6.67
2022-12-11T17:51:32.964Z,7.63
2022-12-11T17:54:02.759Z,7.63
2022-12-11T17:56:34.492Z,8.13
2022-12-11T17:59:27.712Z,6.50
2022-12-11T18:01:58.291Z,4.90
2022-12-11T18:04:28.400Z,7.93
2022-12-11T18:06:58.223Z,6.67
2022-12-11T18:09:29.190Z,7.90
2022-12-11T18:11:59.392Z,8.33
2022-12-11T18:14:31.945Z,7.13
2022-12-11T18:17:01.475Z,6.20
2022-12-11T18:19:31.454Z,6.60
2022-12-11T18:22:01.502Z,7.97
2022-12-11T18:24:32.591Z,5.63
2022-12-11T18:27:03.154Z,7.27
2022-12-11T18:29:35.909Z,8.97
2022-12-11T18:32:05.840Z,6.37
2022-12-11T18:34:37.935Z,8.40
2022-12-11T18:37:08.950Z,7.17
2022-12-11T18:39:38.794Z,8.13
2022-12-11T18:42:32.476Z,8.87
2022-12-11T18:45:03.432Z,5.17
2022-12-11T18:47:33.432Z,7.03
2022-12-11T18:50:07.630Z,9.57
2022-12-11T18:52:39.156Z,9.07
2022-12-11T18:55:09.799Z,7.30
2022-12-11T18:57:40.048Z,9.40
2022-12-11T19:00:13.415Z,7.33
2022-12-11T19:02:43.011Z,9.93
2022-12-11T19:05:13.778Z,8.13
2022-12-11T19:07:46.022Z,9.30
2022-12-11T19:10:16.344Z,10.57
2022-12-11T19:12:46.632Z,6.40
2022-12-11T19:15:23.591Z,7.63
2022-12-11T19:17:54.229Z,8.47
2022-12-11T19:20:48.185Z,6.53
2022-12-11T19:23:13.423Z,7.27
2022-12-11T19:25:46.788Z,8.03
2022-12-11T19:28:17.338Z,5.83
2022-12-11T19:30:51.299Z,9.07
2022-12-11T19:33:23.549Z,8.37
2022-12-11T19:36:02.311Z,8.73
2022-12-11T19:38:31.953Z,8.93
2022-12-11T19:41:01.596Z,9.63
2022-12-11T19:43:31.599Z,8.10
2022-12-11T19:46:06.166Z,10.50
2022-12-11T19:48:41.788Z,9.73
2022-12-11T19:51:27.047Z,8.67
2022-12-11T19:54:00.362Z,5.67
2022-12-11T19:56:32.138Z,9.03
2022-12-11T19:59:02.519Z,4.70
2022-12-11T20:01:34.800Z,8.30
2022-12-11T20:04:07.425Z,8.27
2022-12-11T20:06:42.280Z,9.27
2022-12-11T20:09:13.168Z,10.03
2022-12-11T20:11:44.391Z,9.60
2022-12-11T20:14:33.297Z,6.77
2022-12-11T20:17:14.457Z,9.83
2022-12-11T20:19:44.960Z,9.47
2022-12-11T20:22:14.754Z,6.90
2022-12-11T20:24:45.052Z,8.63
2022-12-11T20:27:16.250Z,10.27
2022-12-11T20:29:48.542Z,10.80
2022-12-11T20:32:19.942Z,7.63
2022-12-11T20:34:49.962Z,10.60
2022-12-11T20:37:35.386Z,10.00
2022-12-11T20:40:09.263Z,8.00
2022-12-11T20:42:39.897Z,6.70
2022-12-11T20:45:11.238Z,8.90
2022-12-11T20:47:44.195Z,7.03
2022-12-11T20:50:15.260Z,9.93
2022-12-11T20:52:44.818Z,10.90
2022-12-11T20:55:19.076Z,11.50
2022-12-11T20:57:49.137Z,8.90
2022-12-11T21:00:19.938Z,10.13
2022-12-11T21:02:54.084Z,11.27
2022-12-11T21:05:23.687Z,11.23
2022-12-11T21:07:56.977Z,8.20
2022-12-11T21:10:33.523Z,7.47
2022-12-11T21:13:08.842Z,9.20
2022-12-11T21:15:38.556Z,5.70
2022-12-11T21:18:10.573Z,11.47
2022-12-11T21:20:39.939Z,9.70
2022-12-11T21:23:09.413Z,10.03
2022-12-11T21:25:42.152Z,10.63
2022-12-11T21:28:12.073Z,8.83
2022-12-11T21:30:41.727Z,9.73
2022-12-11T21:33:12.205Z,9.07
2022-12-11T21:35:42.706Z,6.50
2022-12-11T21:38:13.152Z,9.03
2022-12-11T21:40:46.783Z,10.40
2022-12-11T21:43:17.569Z,9.30
2022-12-11T21:46:03.120Z,11.40
2022-12-11T21:48:34.829Z,12.00
2022-12-11T21:51:12.807Z,7.83
2022-12-11T21:53:48.936Z,7.77
2022-12-11T21:56:22.387Z,9.40
2022-12-11T21:58:53.147Z,9.40
2022-12-11T22:01:34.909Z,12.60
2022-12-11T22:04:13.051Z,11.57
2022-12-11T22:06:47.513Z,12.07
2022-12-11T22:09:18.459Z,12.00
2022-12-11T22:11:55.057Z,10.27
2022-12-11T22:14:28.019Z,12.33
2022-12-11T22:16:57.724Z,13.10
2022-12-11T22:19:32.661Z,10.47
2022-12-11T22:22:02.909Z,10.13
2022-12-11T22:24:32.398Z,11.07
2022-12-11T22:27:02.345Z,10.07
2022-12-11T22:29:31.589Z,10.77
2022-12-11T22:32:01.852Z,11.33
2022-12-11T22:34:33.091Z,8.47
2022-12-11T22:37:02.402Z,11.57
2022-12-11T22:39:35.818Z,10.50
2022-12-11T22:42:06.343Z,10.53
2022-12-11T22:44:36.972Z,11.97
2022-12-11T22:47:06.825Z,10.03
2022-12-11T22:49:38.766Z,11.57
2022-12-11T22:52:08.892Z,10.60
2022-12-11T22:54:43.006Z,11.00
2022-12-11T22:57:14.770Z,10.57
2022-12-11T22:59:45.267Z,14.07
2022-12-11T23:02:15.164Z,10.97
2022-12-11T23:04:46.698Z,9.37
2022-12-11T23:07:16.423Z,12.07
2022-12-11T23:09:46.096Z,12.63
2022-12-11T23:12:15.546Z,11.70
2022-12-11T23:14:45.551Z,12.17
2022-12-11T23:17:15.154Z,11.43
2022-12-11T23:19:47.168Z,9.57
2022-12-11T23:22:17.386Z,12.83
2022-12-11T23:24:46.580Z,11.43
2022-12-11T23:27:17.205Z,11.50
2022-12-11T23:29:47.288Z,13.27
2022-12-11T23:32:17.686Z,11.40
2022-12-11T23:34:54.048Z,10.47
2022-12-11T23:37:23.846Z,11.60
2022-12-11T23:39:53.953Z,12.03
2022-12-11T23:42:23.723Z,11.23
2022-12-11T23:44:55.759Z,11.50
2022-12-11T23:47:25.925Z,8.33
2022-12-11T23:50:00.129Z,12.70
2022-12-11T23:52:31.374Z,12.77
2022-12-11T23:55:01.323Z,13.40
2022-12-11T23:57:30.898Z,11.53
